Time;durP1;ratioP1;P1;durP2;ratioP2;P2;SDS_P1;SDS_P2;PMS_P1;PMS_P2;Temp;Humidity;BMP_temperature;BMP_pressure;BME280_temperature;BME280_humidity;BME280_pressure;Samples;Min_cycle;Max_cycle;Signal;HPM_P1;HPM_P2
2023/12/30 00:00:54;;;;;;;2.17;1.77;;;22.20;57.70;;;;;;4932356;29;20462;-88
2023/12/30 00:03:22;;;;;;;2.40;1.90;;;22.20;57.90;;;;;;4936552;29;20472;-89
2023/12/30 00:05:52;;;;;;;2.80;2.00;;;22.20;58.00;;;;;;4925550;29;20999;-89
2023/12/30 00:08:20;;;;;;;2.20;2.10;;;22.10;57.80;;;;;;4931347;29;20479;-88
2023/12/30 00:10:48;;;;;;;4.47;2.23;;;22.10;58.00;;;;;;4931040;29;20452;-88
2023/12/30 00:13:17;;;;;;;3.10;2.90;;;22.10;58.00;;;;;;4933653;29;20502;-88
2023/12/30 00:15:45;;;;;;;1.87;1.77;;;22.10;58.00;;;;;;4933437;29;20467;-89
2023/12/30 00:18:14;;;;;;;2.20;1.67;;;22.10;58.10;;;;;;4929269;29;20449;-88
2023/12/30 00:20:43;;;;;;;2.17;2.00;;;22.10;58.10;;;;;;4909848;29;20642;-88
2023/12/30 00:23:13;;;;;;;2.70;1.97;;;22.10;58.10;;;;;;4932387;29;21018;-88
2023/12/30 00:25:41;;;;;;;2.00;1.83;;;22.10;58.10;;;;;;4933478;29;20493;-88
2023/12/30 00:28:09;;;;;;;2.30;1.80;;;22.10;57.90;;;;;;4925988;29;20476;-88
2023/12/30 00:30:38;;;;;;;1.97;1.87;;;22.10;58.00;;;;;;4916024;29;20455;-90
2023/12/30 00:33:06;;;;;;;2.53;1.90;;;22.10;58.00;;;;;;4921147;29;20469;-89
2023/12/30 00:35:35;;;;;;;2.20;2.00;;;22.10;57.80;;;;;;4934205;29;20959;-90
2023/12/30 00:38:04;;;;;;;1.83;1.50;;;22.10;57.80;;;;;;4928139;29;20475;-87
2023/12/30 00:40:33;;;;;;;2.20;1.73;;;22.10;57.80;;;;;;4930861;29;20975;-88
2023/12/30 00:43:02;;;;;;;1.97;1.47;;;22.10;57.90;;;;;;4935080;29;20458;-90
2023/12/30 00:45:30;;;;;;;1.83;1.73;;;22.10;58.00;;;;;;4917547;29;20480;-89
2023/12/30 00:47:58;;;;;;;1.93;1.83;;;22.10;58.00;;;;;;4910637;29;21115;-88
2023/12/30 00:50:27;;;;;;;1.53;1.43;;;22.10;57.90;;;;;;4933209;29;20478;-88
2023/12/30 00:52:55;;;;;;;1.60;1.50;;;22.10;58.00;;;;;;4926815;29;20471;-88
2023/12/30 00:55:23;;;;;;;2.50;2.13;;;22.10;57.90;;;;;;4925225;29;20465;-89
2023/12/30 00:57:53;;;;;;;2.57;1.90;;;22.10;57.90;;;;;;4919111;29;20464;-88
2023/12/30 01:00:21;;;;;;;2.47;1.90;;;22.00;57.90;;;;;;4918169;29;20476;-91
2023/12/30 01:02:49;;;;;;;2.07;1.47;;;22.00;57.90;;;;;;4946366;29;20465;-89
2023/12/30 01:05:17;;;;;;;1.70;1.60;;;22.00;57.80;;;;;;4933091;29;20477;-89
2023/12/30 01:07:46;;;;;;;2.27;2.17;;;22.00;57.90;;;;;;4943885;29;20467;-89
2023/12/30 01:10:17;;;;;;;1.27;1.27;;;22.00;57.80;;;;;;4923999;29;20490;-88
2023/12/30 01:12:45;;;;;;;1.57;1.47;;;22.00;57.90;;;;;;4926501;29;20501;-88
2023/12/30 01:15:15;;;;;;;2.10;1.90;;;22.00;57.80;;;;;;4916932;29;20902;-89
2023/12/30 01:17:44;;;;;;;2.00;1.90;;;22.00;57.80;;;;;;4917322;29;20476;-88
2023/12/30 01:20:12;;;;;;;1.43;1.33;;;22.00;57.80;;;;;;4949199;29;20471;-89
2023/12/30 01:22:40;;;;;;;1.43;1.33;;;22.00;57.70;;;;;;4942634;29;20543;-89
2023/12/30 01:25:09;;;;;;;1.50;1.40;;;22.00;57.80;;;;;;4938563;29;20466;-89
2023/12/30 01:27:38;;;;;;;2.03;1.40;;;22.00;57.70;;;;;;4930170;29;20563;-88
2023/12/30 01:30:07;;;;;;;1.67;1.57;;;21.90;57.80;;;;;;4917281;29;20478;-88
2023/12/30 01:32:37;;;;;;;1.30;1.20;;;21.90;57.80;;;;;;4930615;29;20467;-89
2023/12/30 01:35:07;;;;;;;1.80;1.07;;;21.90;57.80;;;;;;4925549;29;20466;-89
2023/12/30 01:37:35;;;;;;;1.30;1.20;;;21.90;57.60;;;;;;4931704;29;20465;-89
2023/12/30 01:40:07;;;;;;;1.37;1.27;;;21.90;57.70;;;;;;4923750;29;20489;-89
2023/12/30 01:42:35;;;;;;;1.40;1.30;;;21.90;57.70;;;;;;4937614;29;20808;-89
2023/12/30 01:45:03;;;;;;;1.60;1.50;;;21.90;57.80;;;;;;4920657;29;20455;-88
2023/12/30 01:47:32;;;;;;;1.60;1.40;;;21.80;57.70;;;;;;4937592;29;20478;-88
2023/12/30 01:50:01;;;;;;;1.37;1.27;;;21.80;57.80;;;;;;4932048;29;20488;-89
2023/12/30 01:52:30;;;;;;;2.73;1.60;;;21.80;57.70;;;;;;4931668;29;20467;-88
2023/12/30 01:54:58;;;;;;;1.60;1.50;;;21.80;57.70;;;;;;4924852;29;20575;-88
2023/12/30 01:57:27;;;;;;;1.60;1.50;;;21.80;57.70;;;;;;4933473;29;20516;-89
2023/12/30 01:59:55;;;;;;;1.73;1.63;;;21.80;57.70;;;;;;4920318;29;20947;-88
2023/12/30 02:02:24;;;;;;;1.20;1.10;;;21.80;57.70;;;;;;4920970;29;20463;-89
2023/12/30 02:04:52;;;;;;;2.00;1.40;;;21.80;57.70;;;;;;4920435;29;20451;-88
2023/12/30 02:07:22;;;;;;;1.03;1.03;;;21.80;57.50;;;;;;4916343;29;20486;-89
2023/12/30 02:09:51;;;;;;;1.10;1.10;;;21.80;57.70;;;;;;4932503;29;20470;-89
2023/12/30 02:12:20;;;;;;;1.70;1.60;;;21.70;57.60;;;;;;4908188;29;20535;-88
2023/12/30 02:14:48;;;;;;;1.47;1.33;;;21.70;57.60;;;;;;4933081;29;20976;-87
2023/12/30 02:17:16;;;;;;;1.60;1.43;;;21.70;57.70;;;;;;4936148;29;20468;-91
2023/12/30 02:19:44;;;;;;;1.40;1.30;;;21.70;57.70;;;;;;4937987;29;20443;-88
2023/12/30 02:22:14;;;;;;;1.70;1.60;;;21.70;57.60;;;;;;4937170;29;20956;-88
2023/12/30 02:24:44;;;;;;;1.30;1.20;;;21.70;57.70;;;;;;4936816;29;20439;-89
2023/12/30 02:27:12;;;;;;;1.07;1.07;;;21.70;57.60;;;;;;4927343;29;20891;-88
2023/12/30 02:29:41;;;;;;;1.30;1.17;;;21.70;57.70;;;;;;4916110;29;20471;-88
2023/12/30 02:32:09;;;;;;;1.33;1.23;;;21.70;57.70;;;;;;4930917;29;20471;-89
2023/12/30 02:34:37;;;;;;;1.47;1.37;;;21.60;57.80;;;;;;4939576;29;20513;-88
2023/12/30 02:37:05;;;;;;;1.40;1.30;;;21.60;57.80;;;;;;4945378;29;20463;-89
2023/12/30 02:39:34;;;;;;;1.20;1.10;;;21.60;57.80;;;;;;4921216;29;20531;-88
2023/12/30 02:42:03;;;;;;;2.70;1.50;;;21.60;57.80;;;;;;4934711;29;20470;-88
2023/12/30 02:44:32;;;;;;;1.10;1.00;;;21.60;57.80;;;;;;4935789;29;20507;-88
2023/12/30 02:47:00;;;;;;;1.40;1.30;;;21.60;57.80;;;;;;4935864;29;20511;-88
2023/12/30 02:49:28;;;;;;;1.30;1.20;;;21.60;57.70;;;;;;4924345;29;20539;-88
2023/12/30 02:51:57;;;;;;;2.10;1.40;;;21.60;57.80;;;;;;4930037;29;20574;-89
2023/12/30 02:54:25;;;;;;;1.83;1.37;;;21.60;57.80;;;;;;4937098;29;20456;-88
2023/12/30 02:56:54;;;;;;;1.20;1.10;;;21.60;57.80;;;;;;4918523;29;20482;-88
2023/12/30 02:59:23;;;;;;;1.50;1.40;;;21.60;57.80;;;;;;4928099;29;20466;-89
2023/12/30 03:01:52;;;;;;;1.10;1.10;;;21.50;57.80;;;;;;4918484;29;20454;-88
2023/12/30 03:04:20;;;;;;;1.40;1.30;;;21.50;57.80;;;;;;4933598;29;20459;-90
2023/12/30 03:06:48;;;;;;;1.53;1.30;;;21.50;57.80;;;;;;4927735;29;20483;-88
2023/12/30 03:09:17;;;;;;;1.20;1.10;;;21.50;57.80;;;;;;4938822;29;20538;-88
2023/12/30 03:11:45;;;;;;;1.30;1.20;;;21.50;57.80;;;;;;4934647;29;20947;-87
2023/12/30 03:14:14;;;;;;;1.57;1.47;;;21.50;57.80;;;;;;4939465;29;20537;-88
2023/12/30 03:16:44;;;;;;;1.53;1.43;;;21.50;57.70;;;;;;4927977;29;20476;-88
2023/12/30 03:19:12;;;;;;;1.33;1.30;;;21.50;57.80;;;;;;4932330;29;20446;-88
2023/12/30 03:21:41;;;;;;;1.50;1.40;;;21.50;57.80;;;;;;4936390;29;20439;-89
2023/12/30 03:24:09;;;;;;;1.70;1.50;;;21.50;57.80;;;;;;4915313;29;20489;-89
2023/12/30 03:26:37;;;;;;;1.40;1.30;;;21.50;57.80;;;;;;4935726;29;20486;-88
2023/12/30 03:29:05;;;;;;;2.30;1.27;;;21.50;57.80;;;;;;4917267;29;20478;-88
2023/12/30 03:31:34;;;;;;;0.97;0.97;;;21.40;57.80;;;;;;4923798;29;20467;-88
2023/12/30 03:34:03;;;;;;;1.20;1.10;;;21.40;57.90;;;;;;4950525;29;20966;-88
2023/12/30 03:36:31;;;;;;;1.33;1.23;;;21.40;57.70;;;;;;4916262;29;20905;-88
2023/12/30 03:39:00;;;;;;;1.00;1.00;;;21.40;57.80;;;;;;4932713;29;20476;-87
2023/12/30 03:41:29;;;;;;;1.50;1.40;;;21.40;57.80;;;;;;4919096;29;20478;-87
2023/12/30 03:43:57;;;;;;;1.33;1.23;;;21.40;57.70;;;;;;4925371;29;20477;-88
2023/12/30 03:46:25;;;;;;;1.83;1.10;;;21.40;57.80;;;;;;4933019;29;20503;-87
2023/12/30 03:48:54;;;;;;;1.83;1.23;;;21.40;57.70;;;;;;4917956;29;20831;-89
2023/12/30 03:51:23;;;;;;;0.90;0.90;;;21.40;57.70;;;;;;4927616;29;20466;-87
2023/12/30 03:53:51;;;;;;;1.20;1.10;;;21.40;57.80;;;;;;4930622;29;21049;-87
2023/12/30 03:56:20;;;;;;;0.97;0.97;;;21.40;57.60;;;;;;4917555;29;20472;-88
2023/12/30 03:58:48;;;;;;;1.03;0.93;;;21.40;57.70;;;;;;4929938;29;20970;-88
2023/12/30 04:01:16;;;;;;;0.90;0.90;;;21.40;57.60;;;;;;4918833;29;20450;-87
2023/12/30 04:03:44;;;;;;;0.83;0.83;;;21.40;57.80;;;;;;4935671;29;20453;-88
2023/12/30 04:06:19;;;;;;;1.20;1.20;;;21.40;57.60;;;;;;4918491;29;20463;-88
2023/12/30 04:08:49;;;;;;;1.30;1.20;;;21.40;57.70;;;;;;4935129;29;20473;-91
2023/12/30 04:11:17;;;;;;;2.30;1.13;;;21.30;57.60;;;;;;4935651;29;20464;-88
2023/12/30 04:13:46;;;;;;;0.90;0.90;;;21.30;57.60;;;;;;4935207;29;20456;-88
2023/12/30 04:16:14;;;;;;;1.40;1.30;;;21.30;57.60;;;;;;4912634;29;20471;-88
2023/12/30 04:18:42;;;;;;;1.00;1.00;;;21.30;57.70;;;;;;4925149;29;20943;-87
2023/12/30 04:21:10;;;;;;;1.30;1.17;;;21.30;57.70;;;;;;4935655;29;20805;-88
2023/12/30 04:23:39;;;;;;;1.20;1.10;;;21.30;57.80;;;;;;4917342;29;20556;-88
2023/12/30 04:26:08;;;;;;;0.90;0.90;;;21.30;57.60;;;;;;4929801;29;20571;-90
2023/12/30 04:28:37;;;;;;;1.30;1.20;;;21.30;57.50;;;;;;4909666;29;20490;-88
2023/12/30 04:31:05;;;;;;;0.83;0.83;;;21.30;57.70;;;;;;4931333;29;20462;-89
2023/12/30 04:33:33;;;;;;;1.10;1.00;;;21.30;57.60;;;;;;4905492;29;20481;-89
2023/12/30 04:36:02;;;;;;;1.00;1.00;;;21.30;57.60;;;;;;4931634;29;21302;-87
2023/12/30 04:38:30;;;;;;;1.53;1.23;;;21.30;57.50;;;;;;4929151;29;20821;-89
2023/12/30 04:40:58;;;;;;;1.00;0.90;;;21.30;57.70;;;;;;4922062;29;20875;-92
2023/12/30 04:43:28;;;;;;;1.00;0.97;;;21.20;57.50;;;;;;4920184;29;20470;-89
2023/12/30 04:45:56;;;;;;;0.93;0.93;;;21.20;57.60;;;;;;4920366;29;20840;-88
2023/12/30 04:48:24;;;;;;;0.80;0.80;;;21.20;57.70;;;;;;4921512;29;20490;-89
2023/12/30 04:50:53;;;;;;;1.10;1.10;;;21.20;57.60;;;;;;4914751;29;20494;-90
2023/12/30 04:53:21;;;;;;;1.17;1.10;;;21.20;57.70;;;;;;4925018;29;20473;-88
2023/12/30 04:55:50;;;;;;;1.30;1.20;;;21.20;57.70;;;;;;4916351;29;20503;-88
2023/12/30 04:58:18;;;;;;;0.80;0.80;;;21.20;57.70;;;;;;4933863;29;20467;-87
2023/12/30 05:00:48;;;;;;;0.80;0.80;;;21.20;57.70;;;;;;4917701;29;21039;-88
2023/12/30 05:03:17;;;;;;;1.10;1.00;;;21.20;57.70;;;;;;4933358;29;20908;-88
2023/12/30 05:05:46;;;;;;;0.80;0.80;;;21.20;57.70;;;;;;4919682;29;20562;-87
2023/12/30 05:08:14;;;;;;;1.10;1.00;;;21.20;57.70;;;;;;4916613;29;20478;-88
2023/12/30 05:10:42;;;;;;;0.90;0.90;;;21.30;57.70;;;;;;4924720;29;20943;-88
2023/12/30 05:13:10;;;;;;;0.97;0.93;;;21.30;57.70;;;;;;4935725;29;20457;-90
2023/12/30 05:15:39;;;;;;;2.20;0.87;;;21.30;57.50;;;;;;4929990;29;20503;-88
2023/12/30 05:18:08;;;;;;;1.67;1.20;;;21.30;57.60;;;;;;4934220;29;20529;-89
2023/12/30 05:20:37;;;;;;;1.00;0.80;;;21.40;57.60;;;;;;4932165;29;20490;-89
2023/12/30 05:23:05;;;;;;;1.00;0.90;;;21.40;57.50;;;;;;4941615;29;20494;-89
2023/12/30 05:25:33;;;;;;;2.20;1.13;;;21.50;57.40;;;;;;4932735;29;20459;-88
2023/12/30 05:28:01;;;;;;;0.93;0.90;;;21.50;57.40;;;;;;4912713;29;20476;-88
2023/12/30 05:30:30;;;;;;;0.80;0.80;;;21.60;57.20;;;;;;4934394;29;20489;-87
2023/12/30 05:32:58;;;;;;;0.80;0.80;;;21.60;57.20;;;;;;4921914;29;20520;-88
2023/12/30 05:35:27;;;;;;;1.50;0.63;;;21.60;57.20;;;;;;4925644;29;20459;-88
2023/12/30 05:37:56;;;;;;;0.80;0.80;;;21.70;57.20;;;;;;4916927;29;20460;-89
2023/12/30 05:40:24;;;;;;;0.77;0.77;;;21.70;57.00;;;;;;4910388;29;20470;-88
2023/12/30 05:42:52;;;;;;;0.80;0.80;;;21.80;57.00;;;;;;4933923;29;20533;-88
2023/12/30 05:45:20;;;;;;;0.77;0.77;;;21.80;56.90;;;;;;4928937;29;20474;-88
2023/12/30 05:47:48;;;;;;;0.70;0.60;;;21.80;56.60;;;;;;4919459;29;20500;-90
2023/12/30 05:50:17;;;;;;;0.80;0.80;;;21.90;56.60;;;;;;4939557;29;21220;-87
2023/12/30 05:52:48;;;;;;;0.63;0.63;;;21.90;56.70;;;;;;4924587;29;20459;-87
2023/12/30 05:55:16;;;;;;;0.70;0.70;;;22.00;56.80;;;;;;4934318;29;20456;-88
2023/12/30 05:57:45;;;;;;;0.80;0.80;;;22.00;56.80;;;;;;4933864;29;20439;-88
2023/12/30 06:00:15;;;;;;;1.17;0.90;;;22.00;56.80;;;;;;4933243;29;20883;-88
2023/12/30 06:02:44;;;;;;;1.27;1.00;;;22.10;56.70;;;;;;4930894;29;20479;-87
2023/12/30 06:05:12;;;;;;;2.93;0.70;;;22.10;56.60;;;;;;4936359;29;20436;-87
2023/12/30 06:07:40;;;;;;;0.70;0.70;;;22.10;56.60;;;;;;4930385;29;20472;-89
2023/12/30 06:10:10;;;;;;;1.40;1.00;;;22.10;56.50;;;;;;4930026;29;20483;-89
2023/12/30 06:12:38;;;;;;;1.13;0.80;;;22.20;56.50;;;;;;4924143;29;20473;-88
2023/12/30 06:15:08;;;;;;;0.87;0.87;;;22.20;56.50;;;;;;4937437;29;20460;-88
2023/12/30 06:17:36;;;;;;;0.87;0.87;;;22.20;56.50;;;;;;4936995;29;20482;-89
2023/12/30 06:20:04;;;;;;;0.80;0.80;;;22.20;56.40;;;;;;4930133;29;20471;-88
2023/12/30 06:22:33;;;;;;;1.50;0.90;;;22.10;56.50;;;;;;4920127;29;20900;-89
2023/12/30 06:25:01;;;;;;;0.90;0.90;;;22.10;56.50;;;;;;4911998;29;20499;-88
2023/12/30 06:27:31;;;;;;;0.93;0.93;;;22.10;56.50;;;;;;4934381;29;20535;-88
2023/12/30 06:30:00;;;;;;;0.80;0.80;;;22.10;56.50;;;;;;4937218;29;20479;-88
2023/12/30 06:32:28;;;;;;;0.80;0.80;;;22.10;56.60;;;;;;4937107;29;20471;-88
2023/12/30 06:34:56;;;;;;;0.80;0.70;;;22.00;56.60;;;;;;4919995;29;20447;-90
2023/12/30 06:37:24;;;;;;;0.50;0.50;;;22.00;56.60;;;;;;4930913;29;21358;-88
2023/12/30 06:39:53;;;;;;;1.30;0.70;;;22.00;56.70;;;;;;4929276;29;20469;-87
2023/12/30 06:42:21;;;;;;;0.63;0.63;;;22.00;56.70;;;;;;4933956;29;20464;-88
2023/12/30 06:44:50;;;;;;;0.50;0.50;;;22.00;56.70;;;;;;4937035;29;20438;-89
2023/12/30 06:47:19;;;;;;;1.30;1.10;;;21.90;56.80;;;;;;4935561;29;20533;-88
2023/12/30 06:49:47;;;;;;;0.70;0.70;;;21.90;56.80;;;;;;4932327;29;20484;-88
2023/12/30 06:52:19;;;;;;;0.60;0.60;;;21.90;56.80;;;;;;4915310;29;20884;-89
2023/12/30 06:54:47;;;;;;;0.73;0.70;;;21.90;56.80;;;;;;4921600;29;20880;-88
2023/12/30 06:57:29;;;;;;;0.73;0.73;;;21.90;56.80;;;;;;4930742;29;20472;-88
2023/12/30 06:59:59;;;;;;;1.17;1.07;;;21.90;56.80;;;;;;4933889;29;20459;-89
2023/12/30 07:02:27;;;;;;;0.70;0.70;;;22.00;56.70;;;;;;4929073;29;20463;-89
2023/12/30 07:04:55;;;;;;;0.83;0.80;;;22.00;56.70;;;;;;4918455;29;20453;-87
2023/12/30 07:07:23;;;;;;;0.70;0.70;;;22.00;56.70;;;;;;4926876;29;20451;-88
2023/12/30 07:09:52;;;;;;;0.60;0.60;;;22.00;56.60;;;;;;4926783;29;20472;-89
2023/12/30 07:12:20;;;;;;;0.80;0.80;;;22.00;56.60;;;;;;4934715;29;20440;-89
2023/12/30 07:14:48;;;;;;;0.50;0.50;;;22.00;56.60;;;;;;4928752;29;20463;-88
2023/12/30 07:17:18;;;;;;;0.67;0.67;;;22.00;56.50;;;;;;4930045;29;21350;-88
2023/12/30 07:19:46;;;;;;;0.73;0.73;;;22.00;56.50;;;;;;4917974;29;20524;-88
2023/12/30 07:22:15;;;;;;;2.43;1.10;;;22.10;56.50;;;;;;4932919;29;20558;-89
2023/12/30 07:24:43;;;;;;;0.70;0.70;;;22.10;56.50;;;;;;4932991;29;20471;-87
2023/12/30 07:27:11;;;;;;;0.80;0.80;;;22.10;56.50;;;;;;4935339;29;20460;-88
2023/12/30 07:29:39;;;;;;;0.77;0.77;;;22.10;56.40;;;;;;4935802;29;20487;-88
2023/12/30 07:32:07;;;;;;;0.60;0.60;;;22.10;56.30;;;;;;4914925;29;20471;-88
2023/12/30 07:34:37;;;;;;;0.77;0.77;;;22.10;56.20;;;;;;4926960;29;20466;-89
2023/12/30 07:37:06;;;;;;;0.60;0.60;;;22.10;56.20;;;;;;4933090;29;20464;-89
2023/12/30 07:39:34;;;;;;;0.70;0.70;;;22.10;56.10;;;;;;4929348;29;20968;-90
2023/12/30 07:42:03;;;;;;;0.97;0.80;;;22.10;56.10;;;;;;4920049;29;20487;-89
2023/12/30 07:44:33;;;;;;;0.83;0.83;;;22.10;56.10;;;;;;4935593;29;20432;-89
2023/12/30 07:47:02;;;;;;;0.80;0.80;;;22.10;56.10;;;;;;4929318;29;20507;-89
2023/12/30 07:49:30;;;;;;;0.80;0.80;;;22.10;56.10;;;;;;4922761;29;20493;-89
2023/12/30 07:52:00;;;;;;;0.87;0.73;;;22.10;56.10;;;;;;4941070;29;20475;-89
2023/12/30 07:54:29;;;;;;;2.20;0.80;;;22.10;56.10;;;;;;4935098;29;20785;-88
2023/12/30 07:56:57;;;;;;;0.70;0.70;;;22.10;56.10;;;;;;4935239;29;20951;-89
2023/12/30 07:59:26;;;;;;;1.00;0.67;;;22.00;56.10;;;;;;4918554;29;20833;-87
2023/12/30 08:01:56;;;;;;;1.20;0.70;;;22.00;56.10;;;;;;4928454;29;20472;-87
2023/12/30 08:04:25;;;;;;;0.80;0.80;;;22.00;56.00;;;;;;4934636;29;20455;-89
2023/12/30 08:06:54;;;;;;;1.33;0.90;;;22.00;56.10;;;;;;4930368;29;20464;-88
2023/12/30 08:09:23;;;;;;;1.13;1.03;;;22.00;56.10;;;;;;4926899;29;20483;-88
2023/12/30 08:11:52;;;;;;;0.60;0.60;;;21.90;56.10;;;;;;4947692;29;20457;-88
2023/12/30 08:14:30;;;;;;;0.70;0.70;;;21.90;56.10;;;;;;4926431;29;20467;-88
2023/12/30 08:16:59;;;;;;;2.53;1.00;;;21.90;56.30;;;;;;4935136;29;20451;-88
2023/12/30 08:19:27;;;;;;;0.83;0.83;;;21.90;56.30;;;;;;4929763;29;20475;-88
2023/12/30 08:21:55;;;;;;;0.90;0.60;;;21.90;56.40;;;;;;4930533;29;20562;-92
2023/12/30 08:24:28;;;;;;;0.80;0.80;;;22.00;56.40;;;;;;4927524;29;20579;-88
2023/12/30 08:26:56;;;;;;;0.60;0.60;;;22.00;56.30;;;;;;4930698;29;21022;-87
2023/12/30 08:29:24;;;;;;;0.70;0.70;;;22.00;56.30;;;;;;4929890;29;20544;-88
2023/12/30 08:31:53;;;;;;;0.80;0.80;;;22.00;56.40;;;;;;4936809;29;20466;-88
2023/12/30 08:34:21;;;;;;;0.60;0.60;;;22.00;56.30;;;;;;4926764;29;20557;-88
2023/12/30 08:36:49;;;;;;;0.50;0.50;;;22.10;56.30;;;;;;4928847;29;20476;-91
2023/12/30 08:39:18;;;;;;;0.70;0.70;;;22.10;56.30;;;;;;4934044;29;21039;-88
2023/12/30 08:41:48;;;;;;;0.60;0.60;;;22.10;56.20;;;;;;4931433;29;20476;-89
2023/12/30 08:44:16;;;;;;;0.87;0.63;;;22.20;56.10;;;;;;4936588;29;20510;-88
2023/12/30 08:46:44;;;;;;;0.50;0.50;;;22.20;55.90;;;;;;4928547;29;20472;-88
2023/12/30 08:49:13;;;;;;;0.80;0.70;;;22.20;56.00;;;;;;4933697;29;20463;-89
2023/12/30 08:51:41;;;;;;;1.27;0.73;;;22.20;56.00;;;;;;4931025;29;20490;-89
2023/12/30 08:54:09;;;;;;;0.60;0.60;;;22.20;55.80;;;;;;4931749;29;20515;-89
2023/12/30 08:56:37;;;;;;;1.00;1.00;;;22.20;55.80;;;;;;4928905;29;20470;-88
2023/12/30 08:59:07;;;;;;;1.10;1.00;;;22.20;55.70;;;;;;4930223;29;20540;-88
2023/12/30 09:01:35;;;;;;;2.10;0.80;;;22.10;55.80;;;;;;4932019;29;20466;-89
2023/12/30 09:04:04;;;;;;;0.80;0.80;;;22.10;55.90;;;;;;4933015;29;22459;-88
2023/12/30 09:06:32;;;;;;;0.80;0.80;;;22.10;55.90;;;;;;4936125;29;20899;-89
2023/12/30 09:09:00;;;;;;;0.80;0.80;;;22.10;56.00;;;;;;4938950;29;20471;-90
2023/12/30 09:11:28;;;;;;;0.70;0.70;;;22.10;56.00;;;;;;4943493;29;20480;-90
2023/12/30 09:13:57;;;;;;;0.80;0.80;;;22.10;56.00;;;;;;4924408;29;20480;-88
2023/12/30 09:16:27;;;;;;;2.03;1.00;;;22.00;56.00;;;;;;4925132;29;20526;-88
2023/12/30 09:18:55;;;;;;;1.00;1.00;;;22.00;56.10;;;;;;4923357;29;20483;-88
2023/12/30 09:21:23;;;;;;;0.70;0.70;;;22.00;56.10;;;;;;4931659;29;20947;-88
2023/12/30 09:23:52;;;;;;;1.57;0.80;;;22.00;56.20;;;;;;4921472;29;20496;-89
2023/12/30 09:26:20;;;;;;;0.90;0.90;;;22.00;56.30;;;;;;4932433;29;20458;-89
2023/12/30 09:28:48;;;;;;;0.77;0.70;;;22.00;56.30;;;;;;4923159;29;20522;-88
2023/12/30 09:31:17;;;;;;;0.87;0.87;;;22.00;56.30;;;;;;4931373;29;20485;-88
2023/12/30 09:33:46;;;;;;;1.23;1.13;;;22.00;56.30;;;;;;4926886;29;20516;-89
2023/12/30 09:36:17;;;;;;;0.90;0.90;;;22.00;56.20;;;;;;4926347;29;20541;-90
2023/12/30 09:38:45;;;;;;;0.97;0.97;;;22.10;56.20;;;;;;4923525;29;20480;-88
2023/12/30 09:41:14;;;;;;;4.00;1.00;;;22.10;56.20;;;;;;4931834;29;20474;-89
2023/12/30 09:43:44;;;;;;;2.03;1.03;;;22.10;56.30;;;;;;4933582;29;20522;-87
2023/12/30 09:46:14;;;;;;;1.07;1.07;;;22.10;56.30;;;;;;4936580;29;20547;-87
2023/12/30 09:48:44;;;;;;;2.53;1.00;;;22.10;56.40;;;;;;4928268;29;20466;-89
2023/12/30 09:51:14;;;;;;;1.27;1.23;;;22.20;56.50;;;;;;4931042;29;20476;-88
2023/12/30 09:53:42;;;;;;;0.97;0.97;;;22.20;56.50;;;;;;4935530;29;20973;-87
2023/12/30 09:56:11;;;;;;;1.23;1.00;;;22.20;56.60;;;;;;4924204;29;21043;-88
2023/12/30 09:58:54;;;;;;;1.33;1.03;;;22.20;56.50;;;;;;4935325;29;20460;-87
2023/12/30 10:01:23;;;;;;;1.80;1.00;;;22.30;56.60;;;;;;4935083;29;20467;-87
2023/12/30 10:03:51;;;;;;;2.33;1.10;;;22.30;56.60;;;;;;4934180;29;20468;-87
2023/12/30 10:06:23;;;;;;;1.40;0.90;;;22.40;56.60;;;;;;4934362;29;20466;-86
2023/12/30 10:08:51;;;;;;;0.70;0.70;;;22.40;56.60;;;;;;4924403;29;20441;-87
2023/12/30 10:11:19;;;;;;;1.23;1.13;;;22.40;56.50;;;;;;4935544;29;20501;-83
2023/12/30 10:13:47;;;;;;;1.00;1.00;;;22.50;56.50;;;;;;4933450;29;20534;-84
2023/12/30 10:16:17;;;;;;;1.17;1.07;;;22.50;56.60;;;;;;4918098;29;20835;-83
2023/12/30 10:18:46;;;;;;;2.10;1.13;;;22.50;56.70;;;;;;4913967;29;20496;-83
2023/12/30 10:21:17;;;;;;;4.00;1.47;;;22.60;56.60;;;;;;4945314;29;20459;-83
2023/12/30 10:23:51;;;;;;;1.80;1.50;;;22.60;56.50;;;;;;4930845;29;20491;-83
2023/12/30 10:26:20;;;;;;;1.33;1.00;;;22.70;56.40;;;;;;4926195;29;20515;-86
2023/12/30 10:28:48;;;;;;;1.17;1.07;;;22.70;56.20;;;;;;4936778;29;20468;-83
2023/12/30 10:31:17;;;;;;;2.43;1.57;;;22.70;56.20;;;;;;4939463;29;20995;-84
2023/12/30 10:33:48;;;;;;;1.37;1.07;;;22.80;56.00;;;;;;4931836;29;20475;-84
2023/12/30 10:36:17;;;;;;;1.40;1.30;;;22.80;56.00;;;;;;4936413;29;20516;-83
2023/12/30 10:38:47;;;;;;;1.63;1.00;;;22.90;55.90;;;;;;4930075;29;20458;-83
2023/12/30 10:41:15;;;;;;;1.40;1.10;;;23.00;55.70;;;;;;4934038;29;20460;-83
2023/12/30 10:43:44;;;;;;;4.13;1.40;;;23.10;55.50;;;;;;4921093;29;20520;-84
2023/12/30 10:46:14;;;;;;;3.10;1.00;;;23.10;55.30;;;;;;4926127;29;20950;-83
2023/12/30 10:48:50;;;;;;;1.50;1.20;;;23.30;55.30;;;;;;4931854;29;20490;-84
2023/12/30 10:51:24;;;;;;;1.63;1.50;;;23.40;55.00;;;;;;4927920;29;20481;-84
2023/12/30 10:54:03;;;;;;;2.90;1.13;;;23.40;54.90;;;;;;4932724;29;20469;-84
2023/12/30 10:56:33;;;;;;;1.80;1.40;;;23.50;54.70;;;;;;4934183;29;20528;-87
2023/12/30 10:59:06;;;;;;;3.83;1.10;;;23.60;54.50;;;;;;4929512;29;20933;-86
2023/12/30 11:01:34;;;;;;;3.07;1.10;;;23.70;54.40;;;;;;4933986;29;20544;-83
2023/12/30 11:04:11;;;;;;;1.77;1.50;;;23.70;54.30;;;;;;4932361;29;20457;-83
2023/12/30 11:06:45;;;;;;;1.00;1.00;;;23.80;54.10;;;;;;4933406;29;20814;-83
2023/12/30 11:09:18;;;;;;;1.87;1.30;;;23.90;54.00;;;;;;4919404;29;20463;-83
2023/12/30 11:11:51;;;;;;;2.20;1.87;;;24.00;53.90;;;;;;4935063;29;20534;-84
2023/12/30 11:14:20;;;;;;;1.93;1.10;;;24.00;53.70;;;;;;4929866;29;20460;-85
2023/12/30 11:16:51;;;;;;;2.30;1.50;;;24.10;53.50;;;;;;4930295;29;20985;-85
2023/12/30 11:19:27;;;;;;;1.67;1.30;;;24.10;53.40;;;;;;4917831;29;20464;-84
2023/12/30 11:21:56;;;;;;;1.43;1.10;;;24.10;53.40;;;;;;4926483;29;20478;-84
2023/12/30 11:24:27;;;;;;;1.23;1.13;;;24.10;53.40;;;;;;4934185;29;20884;-85
2023/12/30 11:26:56;;;;;;;1.87;1.30;;;24.00;53.50;;;;;;4930387;29;20461;-84
2023/12/30 11:29:26;;;;;;;1.00;1.00;;;23.90;53.60;;;;;;4924768;29;20457;-84
2023/12/30 11:31:56;;;;;;;2.63;1.00;;;23.70;54.10;;;;;;4926973;29;20482;-84
2023/12/30 11:34:24;;;;;;;1.40;1.30;;;23.70;54.00;;;;;;4926463;29;20899;-83
2023/12/30 11:36:54;;;;;;;1.40;1.30;;;23.70;54.10;;;;;;4928681;29;20510;-83
2023/12/30 11:39:27;;;;;;;1.00;1.00;;;23.60;54.30;;;;;;4931835;29;20465;-84
2023/12/30 11:41:57;;;;;;;0.90;0.90;;;23.50;54.50;;;;;;4946604;29;20444;-83
2023/12/30 11:44:25;;;;;;;1.30;1.20;;;23.50;54.60;;;;;;4935381;29;20467;-86
2023/12/30 11:46:54;;;;;;;1.63;1.30;;;23.40;54.70;;;;;;4926666;29;20975;-84
2023/12/30 11:49:23;;;;;;;1.50;1.17;;;23.30;54.70;;;;;;4937979;29;20463;-81
2023/12/30 11:51:53;;;;;;;1.77;1.03;;;23.30;55.00;;;;;;4918127;29;20481;-84
2023/12/30 11:54:22;;;;;;;1.13;1.03;;;23.20;55.10;;;;;;4926371;29;20473;-83
2023/12/30 11:56:52;;;;;;;1.33;1.20;;;23.20;55.30;;;;;;4928083;29;20463;-85
2023/12/30 11:59:20;;;;;;;3.60;1.30;;;23.10;55.40;;;;;;4935714;29;20452;-91
2023/12/30 12:01:49;;;;;;;2.00;1.77;;;23.10;55.50;;;;;;4930411;29;21179;-84
2023/12/30 12:04:17;;;;;;;3.60;1.60;;;23.10;55.60;;;;;;4927753;29;20447;-84
2023/12/30 12:06:45;;;;;;;2.50;1.57;;;23.10;55.80;;;;;;4923913;29;20461;-85
2023/12/30 12:09:13;;;;;;;4.83;1.83;;;23.00;56.10;;;;;;4930594;29;20458;-92
2023/12/30 12:11:42;;;;;;;4.10;1.40;;;23.00;56.40;;;;;;4928453;29;20539;-83
2023/12/30 12:14:12;;;;;;;6.10;2.40;;;23.00;56.70;;;;;;4927282;29;21490;-87
2023/12/30 12:16:41;;;;;;;5.27;2.20;;;23.00;56.80;;;;;;4937179;29;20476;-83
2023/12/30 12:19:09;;;;;;;6.00;1.73;;;23.00;57.00;;;;;;4929937;29;20869;-83
2023/12/30 12:21:37;;;;;;;8.03;1.90;;;23.00;57.10;;;;;;4925885;29;20563;-83
2023/12/30 12:24:06;;;;;;;3.30;1.90;;;23.00;57.20;;;;;;4926839;29;20500;-83
2023/12/30 12:26:37;;;;;;;6.00;1.97;;;23.00;57.30;;;;;;4922253;29;20502;-87
2023/12/30 12:29:05;;;;;;;3.13;1.87;;;23.00;57.40;;;;;;4922846;29;20903;-85
2023/12/30 12:31:35;;;;;;;6.23;2.47;;;23.00;57.50;;;;;;4934581;29;20471;-84
2023/12/30 12:34:21;;;;;;;3.77;2.37;;;23.00;57.60;;;;;;4934079;29;20463;-85
2023/12/30 12:36:50;;;;;;;3.60;1.67;;;23.00;57.60;;;;;;4931596;29;20898;-84
2023/12/30 12:39:19;;;;;;;3.57;1.90;;;22.90;57.60;;;;;;4920914;29;20591;-85
2023/12/30 12:41:48;;;;;;;4.57;1.83;;;22.90;57.60;;;;;;4943387;29;20472;-83
2023/12/30 12:44:16;;;;;;;6.20;2.10;;;22.90;57.60;;;;;;4928206;29;20552;-84
2023/12/30 12:46:46;;;;;;;9.33;2.00;;;22.90;57.70;;;;;;4928684;29;20827;-85
2023/12/30 12:49:17;;;;;;;3.30;2.00;;;22.90;57.70;;;;;;4955247;29;20420;-85
2023/12/30 12:51:46;;;;;;;4.03;2.00;;;22.90;57.70;;;;;;4955663;29;20429;-84
2023/12/30 12:54:14;;;;;;;5.40;1.50;;;22.90;57.60;;;;;;4923072;29;20473;-85
2023/12/30 12:56:43;;;;;;;3.43;1.80;;;22.90;57.50;;;;;;4918384;29;20559;-84